Accueil
METAR-TAF:

METAR-TAF

Aéroports :

Meppen, Allemagne

Base aérienne

latitude: 52-43-24N, longitude: 007-19-35E, altitude: 21 m

Observation

Le bulletin a été fait il y a 16 minutes, à 17:20 UTC
Vent calme
Température 15°C
Humidité 82%
Pression 1020 hPa
Visibilité 10 km ou plus

METAR: ETWM 211720Z AUTO 00000KT 9999 // ////// 15/12 Q1020 ///

Heure: 19:36 (17:36 UTC)


TAF: absent

Observations et prévisions météorologiques de plus de 4000 aéroports (messages METAR et TAF).

Les stations disponibles sont représentées par des disques jaunes et rouges sur la carte.

Passer la souris dessus pour voir le nom de la station.

Cliquer dessus pour voir les observations et prévisions météorologiques.

Pour changer de carte: cliquez sur les boutons verts avec une croix noire pour zoomer, sur le bouton vert avec un tiret pour effectuer un zoom arrière, ou sur les flèches vertes pour les cartes adjacentes.


METAR-TAF: